Aérodrome :
LOGIN :

S'inscrire | Disclaimer

   EN    FR    IT 

 










Légende :    VFR   VFR Marginal   IFR   IFR Intensif   IFR Très Intensif
Visi : 
Plafond : 
>= 8 km
>= 3000ft
5 à 8 km
1000 à 3000 ft
1500m à 5 km
500 à 1000 ft
800 à 1500m
200 à 500 ft
< 800m
< 200 ft
Symboles :   Orages  Brouillard  Fortes neiges  Fortes précipitations  Vent > 20 kt
SIGMETs :   Divers  Orages  Givrage  Turbulence  Onde Orograph.  Cendres Volcan.






- Altitude de l'aérodrome : 1090 ft
- Code IATA : CFE


LFLC - Clermont-Ferrand Auvergne

DERNIER METAR :
  • 282130Z AUTO 00000KT 7000 NSC 01/01 Q1022 NOSIG

METARs EXPIRÉS :
  • 282100Z AUTO VRB03KT 7000 FEW016 01/M01 Q1022 NOSIG
  • 282030Z AUTO 27002KT 8000 FEW016 03/01 Q1022 NOSIG
  • 282000Z AUTO 24002KT 9000 BKN017 03/01 Q1022 NOSIG
  • 281930Z AUTO 24002KT 9000 BKN018 BKN250 03/02 Q1022 NOSIG
  • 281900Z AUTO 14002KT 9000 SCT018 03/01 Q1022 NOSIG
  • 281830Z AUTO 11003KT 9999 FEW019 04/02 Q1022 NOSIG
  • 281800Z AUTO 06002KT CAVOK 04/02 Q1022 NOSIG
  • 281730Z AUTO 05003KT 9999 FEW020 05/02 Q1022 NOSIG
  • 281700Z AUTO VRB02KT 9999 FEW020 06/03 Q1022 NOSIG

TAF TAF LFLC
Valide du 28 à 18h jusqu'au 29 à 18h UTC


281700Z 2818/2918 VRB03KT 9999 BKN020
BECMG 2902/2904 18010KT
BECMG 2910/2912 CAVOK
BECMG 2916/2918 25008KT BKN050
ATIS : +33 4 73 62 74 38



MET'MAP, la Météo Aéronautique d'un coup d'oeil ! - Copyright ORBIFLY Décembre 2007 - Disclaimer

ORBIFLY MET'MAP TEAM :

Programmation & Développement : Alexandra Zaïnal
Sur une idée originale de : Baudouin d'Aumeries
Soutien technique & logistique : Manuel Goepfert
Assistance : Marc-Olivier Méhu




SOURCES & CREDITS :

   NOAA